createdAt,value
2022-08-22T00:00:34.730Z,99.90
2022-08-22T00:06:03.070Z,99.90
2022-08-22T00:08:36.084Z,99.90
2022-08-22T00:11:25.865Z,99.90
2022-08-22T00:14:15.747Z,99.90
2022-08-22T00:17:20.370Z,99.90
2022-08-22T00:19:54.774Z,99.90
2022-08-22T00:22:55.569Z,99.90
2022-08-22T00:25:31.249Z,99.90
2022-08-22T00:28:10.664Z,99.90
2022-08-22T00:31:01.290Z,99.90
2022-08-22T00:33:37.757Z,99.90
2022-08-22T00:36:25.003Z,99.90
2022-08-22T00:39:07.232Z,99.90
2022-08-22T00:42:10.137Z,99.90
2022-08-22T00:44:39.790Z,99.90
2022-08-22T00:47:12.562Z,99.90
2022-08-22T00:50:00.321Z,99.90
2022-08-22T00:52:59.006Z,99.90
2022-08-22T00:55:34.831Z,99.90
2022-08-22T00:58:33.082Z,99.90
2022-08-22T01:01:12.526Z,99.90
2022-08-22T01:03:48.369Z,99.90
2022-08-22T01:06:56.182Z,99.90
2022-08-22T01:09:54.369Z,99.90
2022-08-22T01:12:33.299Z,99.90
2022-08-22T01:15:09.577Z,99.90
2022-08-22T01:17:54.263Z,99.90
2022-08-22T01:20:28.123Z,99.90
2022-08-22T01:23:03.690Z,99.90
2022-08-22T01:25:33.802Z,99.90
2022-08-22T01:28:26.808Z,99.90
2022-08-22T01:31:00.465Z,99.90
2022-08-22T01:33:57.998Z,99.90
2022-08-22T01:36:50.674Z,99.90
2022-08-22T01:39:45.170Z,99.90
2022-08-22T01:42:20.896Z,99.90
2022-08-22T01:45:15.691Z,99.90
2022-08-22T01:47:42.602Z,99.90
2022-08-22T01:50:48.233Z,99.90
2022-08-22T01:53:24.330Z,99.90
2022-08-22T01:56:11.234Z,99.90
2022-08-22T01:59:01.837Z,99.90
2022-08-22T02:01:35.349Z,99.90
2022-08-22T02:04:10.885Z,99.90
2022-08-22T02:07:06.687Z,99.90
2022-08-22T02:09:48.980Z,99.90
2022-08-22T02:12:43.312Z,99.90
2022-08-22T02:15:41.167Z,99.90
2022-08-22T02:18:24.801Z,99.90
2022-08-22T02:20:59.838Z,99.90
2022-08-22T02:24:05.511Z,99.90
2022-08-22T02:26:50.344Z,99.90
2022-08-22T02:29:41.727Z,99.90
2022-08-22T02:32:36.760Z,99.90
2022-08-22T02:35:03.862Z,99.90
2022-08-22T02:37:47.374Z,99.90
2022-08-22T02:40:27.500Z,99.90
2022-08-22T02:43:18.202Z,99.90
2022-08-22T02:46:08.246Z,99.90
2022-08-22T02:48:44.638Z,99.90
2022-08-22T02:51:33.700Z,99.90
2022-08-22T02:54:19.544Z,99.90
2022-08-22T02:57:03.379Z,99.90
2022-08-22T02:59:58.851Z,99.90
2022-08-22T03:02:28.466Z,99.90
2022-08-22T03:04:57.179Z,99.90
2022-08-22T03:07:36.460Z,99.90
2022-08-22T03:10:23.130Z,99.90
2022-08-22T03:12:57.298Z,99.90
2022-08-22T03:15:37.980Z,99.90
2022-08-22T03:18:05.486Z,99.90
2022-08-22T03:21:00.070Z,99.90
2022-08-22T03:23:51.133Z,99.90
2022-08-22T03:26:29.534Z,99.90
2022-08-22T03:29:10.554Z,99.90
2022-08-22T03:31:38.085Z,99.90
2022-08-22T03:34:24.820Z,99.90
2022-08-22T03:37:10.557Z,99.90
2022-08-22T03:39:46.691Z,99.90
2022-08-22T03:42:16.425Z,99.90
2022-08-22T03:44:54.298Z,99.90
2022-08-22T03:47:47.234Z,99.90
2022-08-22T03:50:32.637Z,99.90
2022-08-22T03:53:37.760Z,99.90
2022-08-22T03:56:44.840Z,99.90
2022-08-22T03:59:42.727Z,99.90
2022-08-22T04:02:43.159Z,99.90
2022-08-22T04:05:48.662Z,99.90
2022-08-22T04:08:43.770Z,99.90
2022-08-22T04:11:39.736Z,99.90
2022-08-22T04:14:10.099Z,99.90
2022-08-22T04:17:15.272Z,99.90
2022-08-22T04:20:00.661Z,99.90
2022-08-22T04:23:10.141Z,99.90
2022-08-22T04:26:10.813Z,99.90
2022-08-22T04:29:05.879Z,99.90
2022-08-22T04:31:50.590Z,99.90
2022-08-22T04:34:28.759Z,99.90
2022-08-22T04:37:05.664Z,99.90
2022-08-22T04:39:51.640Z,99.90
2022-08-22T04:42:33.789Z,99.90
2022-08-22T04:45:13.651Z,99.90
2022-08-22T04:48:12.572Z,99.90
2022-08-22T04:50:51.118Z,99.90
2022-08-22T04:53:31.701Z,99.90
2022-08-22T04:56:25.389Z,99.90
2022-08-22T04:59:03.570Z,99.90
2022-08-22T05:01:54.731Z,99.90
2022-08-22T05:04:27.426Z,99.90
2022-08-22T05:06:59.624Z,99.90
2022-08-22T05:09:31.903Z,99.90
2022-08-22T05:12:07.434Z,99.90
2022-08-22T05:14:41.464Z,99.90
2022-08-22T05:17:12.562Z,99.90
2022-08-22T05:19:50.784Z,99.90
2022-08-22T05:22:24.603Z,99.90
2022-08-22T05:25:00.248Z,99.90
2022-08-22T05:27:34.761Z,99.90
2022-08-22T05:30:16.444Z,99.90
2022-08-22T05:32:51.993Z,99.90
2022-08-22T05:35:26.155Z,99.90
2022-08-22T05:37:55.223Z,99.90
2022-08-22T05:40:26.412Z,99.90
2022-08-22T05:42:56.120Z,99.90
2022-08-22T05:45:23.879Z,99.90
2022-08-22T05:48:08.984Z,99.90
2022-08-22T05:50:38.387Z,99.90
2022-08-22T05:53:13.013Z,99.90
2022-08-22T05:56:04.570Z,99.90
2022-08-22T05:58:41.526Z,99.90
2022-08-22T06:01:31.582Z,99.90
2022-08-22T06:04:05.835Z,99.90
2022-08-22T06:06:49.737Z,99.90
2022-08-22T06:09:44.494Z,99.90
2022-08-22T06:12:22.224Z,99.90
2022-08-22T06:15:12.924Z,99.90
2022-08-22T06:17:45.727Z,99.90
2022-08-22T06:20:21.890Z,99.90
2022-08-22T06:23:01.167Z,99.90
2022-08-22T06:25:34.307Z,99.90
2022-08-22T06:28:07.199Z,99.90
2022-08-22T06:30:36.679Z,99.90
2022-08-22T06:33:06.738Z,99.90
2022-08-22T06:36:21.165Z,99.90
2022-08-22T06:39:03.016Z,99.90
2022-08-22T06:41:33.618Z,99.90
2022-08-22T06:44:04.038Z,99.90
2022-08-22T06:49:02.461Z,99.90
2022-08-22T06:51:31.059Z,99.90
2022-08-22T06:54:03.556Z,99.90
2022-08-22T06:56:38.937Z,99.90
2022-08-22T06:59:10.997Z,99.90
2022-08-22T07:01:51.241Z,99.90
2022-08-22T07:04:23.908Z,99.90
2022-08-22T07:06:51.481Z,99.90
2022-08-22T07:09:26.422Z,99.90
2022-08-22T07:11:56.754Z,99.90
2022-08-22T07:14:40.879Z,99.90
2022-08-22T07:17:14.992Z,99.90
2022-08-22T07:19:59.569Z,99.10
2022-08-22T07:22:32.509Z,98.00
2022-08-22T07:25:11.183Z,99.60
2022-08-22T07:27:52.994Z,98.30
2022-08-22T07:30:27.338Z,98.90
2022-08-22T07:33:26.253Z,97.90
2022-08-22T07:36:02.036Z,98.10
2022-08-22T07:38:43.973Z,99.90
2022-08-22T07:41:18.641Z,99.90
2022-08-22T07:43:51.686Z,98.70
2022-08-22T07:46:31.502Z,98.70
2022-08-22T07:49:22.327Z,96.80
2022-08-22T07:51:54.734Z,94.60
2022-08-22T07:54:45.621Z,94.60
2022-08-22T07:57:17.515Z,93.40
2022-08-22T07:59:50.866Z,86.20
2022-08-22T08:02:20.022Z,88.10
2022-08-22T08:04:49.628Z,92.80
2022-08-22T08:07:18.557Z,93.00
2022-08-22T08:09:51.024Z,93.70
2022-08-22T08:12:22.107Z,94.60
2022-08-22T08:14:53.598Z,94.40
2022-08-22T08:17:32.174Z,93.00
2022-08-22T08:20:04.938Z,93.90
2022-08-22T08:22:32.977Z,93.20
2022-08-22T08:25:02.652Z,91.30
2022-08-22T08:27:50.323Z,91.40
2022-08-22T08:30:35.923Z,91.30
2022-08-22T08:33:24.441Z,92.50
2022-08-22T08:36:02.470Z,92.20
2022-08-22T08:38:37.956Z,91.90
2022-08-22T08:41:32.575Z,91.80
2022-08-22T08:44:29.527Z,90.10
2022-08-22T08:47:30.710Z,88.90
2022-08-22T08:50:26.644Z,91.10
2022-08-22T08:53:15.090Z,90.70
2022-08-22T08:55:51.929Z,91.70
2022-08-22T08:58:34.655Z,93.30
2022-08-22T09:01:07.884Z,91.30
2022-08-22T09:03:53.910Z,90.00
2022-08-22T09:06:38.797Z,92.20
2022-08-22T09:09:27.447Z,89.90
2022-08-22T09:12:11.309Z,87.70
2022-08-22T09:14:44.372Z,82.80
2022-08-22T09:17:36.094Z,84.70
2022-08-22T09:20:35.420Z,80.20
2022-08-22T09:23:33.783Z,80.70
2022-08-22T09:26:25.382Z,79.40
2022-08-22T09:29:02.009Z,80.50
2022-08-22T09:31:47.460Z,75.00
2022-08-22T09:34:25.845Z,77.80
2022-08-22T09:37:06.562Z,77.80
2022-08-22T09:40:00.001Z,79.20
2022-08-22T09:42:51.181Z,72.80
2022-08-22T09:45:36.809Z,72.80
2022-08-22T09:48:38.486Z,73.70
2022-08-22T09:51:31.871Z,71.10
2022-08-22T09:54:33.457Z,69.10
2022-08-22T09:57:27.334Z,68.00
2022-08-22T10:00:22.166Z,71.60
2022-08-22T10:03:02.621Z,68.30
2022-08-22T10:05:43.791Z,70.10
2022-08-22T10:08:14.479Z,69.50
2022-08-22T10:11:02.100Z,63.10
2022-08-22T10:13:57.860Z,63.00
2022-08-22T10:16:39.620Z,65.30
2022-08-22T10:19:24.984Z,62.40
2022-08-22T10:22:10.898Z,62.10
2022-08-22T10:24:44.289Z,61.30
2022-08-22T10:27:19.720Z,61.60
2022-08-22T10:30:19.011Z,62.40
2022-08-22T10:33:01.190Z,60.90
2022-08-22T10:35:41.321Z,60.70
2022-08-22T10:38:25.901Z,61.80
2022-08-22T10:41:02.473Z,60.80
2022-08-22T10:44:01.370Z,61.10
2022-08-22T10:47:02.976Z,61.00
2022-08-22T10:50:20.241Z,60.50
2022-08-22T10:53:14.167Z,59.50
2022-08-22T10:55:44.715Z,60.50
2022-08-22T10:58:40.541Z,59.30
2022-08-22T11:01:37.961Z,60.50
2022-08-22T11:04:28.216Z,59.50
2022-08-22T11:07:14.622Z,58.30
2022-08-22T11:09:55.172Z,57.20
2022-08-22T11:12:50.585Z,57.60
2022-08-22T11:15:35.224Z,58.10
2022-08-22T11:18:26.836Z,56.90
2022-08-22T11:21:07.292Z,56.90
2022-08-22T11:24:02.070Z,57.30
2022-08-22T11:26:35.805Z,57.60
2022-08-22T11:29:26.381Z,57.40
2022-08-22T11:32:19.507Z,56.50
2022-08-22T11:35:02.607Z,56.50
2022-08-22T11:37:42.415Z,56.90
2022-08-22T11:40:28.436Z,56.20
2022-08-22T11:43:06.170Z,56.70
2022-08-22T11:45:44.487Z,56.10
2022-08-22T11:48:14.524Z,57.20
2022-08-22T11:51:00.376Z,56.10
2022-08-22T11:53:54.845Z,56.50
2022-08-22T11:56:41.492Z,57.40
2022-08-22T11:59:29.824Z,56.80
2022-08-22T12:02:05.033Z,56.00
2022-08-22T12:04:47.109Z,56.40
2022-08-22T12:07:31.328Z,56.50
2022-08-22T12:10:08.105Z,55.80
2022-08-22T12:12:54.017Z,54.40
2022-08-22T12:15:24.611Z,53.20
2022-08-22T12:18:06.271Z,54.00
2022-08-22T12:21:11.502Z,53.90
2022-08-22T12:23:55.850Z,54.40
2022-08-22T12:27:01.307Z,52.60
2022-08-22T12:29:54.959Z,52.90
2022-08-22T12:32:49.182Z,53.00
2022-08-22T12:35:16.248Z,53.70
2022-08-22T12:38:01.252Z,50.40
2022-08-22T12:40:49.409Z,50.20
2022-08-22T12:43:19.163Z,51.20
2022-08-22T12:45:54.999Z,51.20
2022-08-22T12:48:21.898Z,52.60
2022-08-22T12:50:57.331Z,52.30
2022-08-22T12:53:45.162Z,51.80
2022-08-22T12:56:30.636Z,51.50
2022-08-22T12:59:34.079Z,51.20
2022-08-22T13:02:13.354Z,51.30
2022-08-22T13:04:50.718Z,50.60
2022-08-22T13:07:30.642Z,50.30
2022-08-22T13:10:17.403Z,49.60
2022-08-22T13:12:48.600Z,50.70
2022-08-22T13:15:36.315Z,49.60
2022-08-22T13:18:29.208Z,49.50
2022-08-22T13:21:02.349Z,49.60
2022-08-22T13:23:45.456Z,50.20
2022-08-22T13:26:32.176Z,50.70
2022-08-22T13:31:59.176Z,51.80
2022-08-22T13:34:47.032Z,51.20
2022-08-22T13:37:24.405Z,52.40
2022-08-22T13:39:58.486Z,51.90
2022-08-22T13:42:30.148Z,53.60
2022-08-22T13:45:05.428Z,54.40
2022-08-22T13:47:39.726Z,54.60
2022-08-22T13:50:19.500Z,53.50
2022-08-22T13:53:05.696Z,53.70
2022-08-22T13:56:01.597Z,53.50
2022-08-22T13:58:47.581Z,54.00
2022-08-22T14:01:31.544Z,53.40
2022-08-22T14:04:01.373Z,52.80
2022-08-22T14:06:57.039Z,52.80
2022-08-22T14:09:38.848Z,53.30
2022-08-22T14:12:25.200Z,53.40
2022-08-22T14:14:59.643Z,53.60
2022-08-22T14:17:42.823Z,53.70
2022-08-22T14:20:32.024Z,53.10
2022-08-22T14:23:29.418Z,52.20
2022-08-22T14:25:57.471Z,51.80
2022-08-22T14:28:31.224Z,51.70
2022-08-22T14:31:13.498Z,51.60
2022-08-22T14:33:55.978Z,52.50
2022-08-22T14:36:29.150Z,60.10
2022-08-22T14:39:01.986Z,61.50
2022-08-22T14:41:56.183Z,61.40
2022-08-22T14:44:32.404Z,60.20
2022-08-22T14:47:08.326Z,59.70
2022-08-22T14:49:56.415Z,59.10
2022-08-22T14:52:29.386Z,57.10
2022-08-22T14:55:08.809Z,56.80
2022-08-22T14:57:44.763Z,55.90
2022-08-22T15:00:13.130Z,55.70
2022-08-22T15:02:42.098Z,56.20
2022-08-22T15:05:21.534Z,74.60
2022-08-22T15:07:56.203Z,73.50
2022-08-22T15:10:31.786Z,76.80
2022-08-22T15:13:05.337Z,76.40
2022-08-22T15:15:53.406Z,57.60
2022-08-22T15:18:28.973Z,57.90
2022-08-22T15:21:21.022Z,57.80
2022-08-22T15:23:59.594Z,58.60
2022-08-22T15:26:50.102Z,59.70
2022-08-22T15:29:27.642Z,59.00
2022-08-22T15:32:00.410Z,60.30
2022-08-22T15:34:32.731Z,60.80
2022-08-22T15:37:16.704Z,61.90
2022-08-22T15:40:08.129Z,62.70
2022-08-22T15:42:48.274Z,63.80
2022-08-22T15:45:30.299Z,64.30
2022-08-22T15:48:04.456Z,65.80
2022-08-22T15:50:54.851Z,64.90
2022-08-22T15:53:26.570Z,67.80
2022-08-22T15:56:11.954Z,69.80
2022-08-22T15:58:49.523Z,70.20
2022-08-22T16:01:22.495Z,68.00
2022-08-22T16:04:14.111Z,67.80
2022-08-22T16:06:58.211Z,68.70
2022-08-22T16:09:46.872Z,70.60
2022-08-22T16:12:38.251Z,66.90
2022-08-22T16:15:43.688Z,67.90
2022-08-22T16:18:33.306Z,86.00
2022-08-22T16:21:04.495Z,71.50
2022-08-22T16:23:50.372Z,76.80
2022-08-22T16:26:31.637Z,77.10
2022-08-22T16:29:14.704Z,82.50
2022-08-22T16:31:44.923Z,90.60
2022-08-22T16:34:18.295Z,91.70
2022-08-22T16:39:32.525Z,81.70
2022-08-22T16:42:19.654Z,82.30
2022-08-22T16:47:41.777Z,99.90
2022-08-22T16:50:18.481Z,86.60
2022-08-22T16:53:30.310Z,87.60
2022-08-22T16:56:06.116Z,88.60
2022-08-22T16:58:57.961Z,89.70
2022-08-22T17:01:51.002Z,90.10
2022-08-22T17:04:35.419Z,90.30
2022-08-22T17:07:33.947Z,98.00
2022-08-22T17:10:22.521Z,87.70
2022-08-22T17:13:27.499Z,90.30
2022-08-22T17:15:54.492Z,91.70
2022-08-22T17:18:30.447Z,89.20
2022-08-22T17:21:30.457Z,91.40
2022-08-22T17:24:31.643Z,92.80
2022-08-22T17:27:28.976Z,93.00
2022-08-22T17:30:20.468Z,94.30
2022-08-22T17:33:21.129Z,95.50
2022-08-22T17:36:08.996Z,95.00
2022-08-22T17:39:19.088Z,94.60
2022-08-22T17:42:10.396Z,94.90
2022-08-22T17:44:51.046Z,95.40
2022-08-22T17:47:28.151Z,95.80
2022-08-22T17:50:03.398Z,97.00
2022-08-22T17:52:58.842Z,96.30
2022-08-22T17:55:56.595Z,98.60
2022-08-22T17:58:37.475Z,98.80
2022-08-22T18:01:15.416Z,97.90
2022-08-22T18:03:54.066Z,95.60
2022-08-22T18:06:26.692Z,96.10
2022-08-22T18:09:17.104Z,96.40
2022-08-22T18:11:52.368Z,96.10
2022-08-22T18:14:35.221Z,96.50
2022-08-22T18:17:33.856Z,96.60
2022-08-22T18:20:27.545Z,96.60
2022-08-22T18:23:36.072Z,96.30
2022-08-22T18:26:31.697Z,96.70
2022-08-22T18:28:58.837Z,97.00
2022-08-22T18:31:45.682Z,97.40
2022-08-22T18:34:33.316Z,98.10
2022-08-22T18:37:19.198Z,98.70
2022-08-22T18:39:59.928Z,99.60
2022-08-22T18:42:49.999Z,99.90
2022-08-22T18:45:43.835Z,99.90
2022-08-22T18:48:34.710Z,99.90
2022-08-22T18:51:27.213Z,99.90
2022-08-22T18:53:57.837Z,99.90
2022-08-22T18:56:49.985Z,99.90
2022-08-22T18:59:43.848Z,99.90
2022-08-22T19:02:26.256Z,99.90
2022-08-22T19:05:25.253Z,99.90
2022-08-22T19:08:01.144Z,99.90
2022-08-22T19:10:45.309Z,99.90
2022-08-22T19:13:21.617Z,99.90
2022-08-22T19:16:05.203Z,99.90
2022-08-22T19:18:51.210Z,99.90
2022-08-22T19:21:45.273Z,99.90
2022-08-22T19:24:29.844Z,99.90
2022-08-22T19:27:19.862Z,99.90
2022-08-22T19:29:48.854Z,99.90
2022-08-22T19:32:47.283Z,99.90
2022-08-22T19:35:24.884Z,99.90
2022-08-22T19:38:00.905Z,99.90
2022-08-22T19:40:55.989Z,99.90
2022-08-22T19:43:37.437Z,99.90
2022-08-22T19:46:12.092Z,99.90
2022-08-22T19:48:54.126Z,99.90
2022-08-22T19:51:26.750Z,99.90
2022-08-22T19:54:16.400Z,99.90
2022-08-22T19:57:03.801Z,99.90
2022-08-22T20:00:00.489Z,99.90
2022-08-22T20:02:49.948Z,99.90
2022-08-22T20:05:22.255Z,99.90
2022-08-22T20:08:01.131Z,99.90
2022-08-22T20:10:49.656Z,99.90
2022-08-22T20:13:23.840Z,99.90
2022-08-22T20:16:01.627Z,99.90
2022-08-22T20:19:05.133Z,99.90
2022-08-22T20:22:03.089Z,99.90
2022-08-22T20:24:43.800Z,99.90
2022-08-22T20:27:26.750Z,99.90
2022-08-22T20:30:07.806Z,99.90
2022-08-22T20:32:42.103Z,99.90
2022-08-22T20:35:18.301Z,99.90
2022-08-22T20:38:06.773Z,99.90
2022-08-22T20:40:59.400Z,99.90
2022-08-22T20:43:39.268Z,99.90
2022-08-22T20:46:35.682Z,99.90
2022-08-22T20:49:04.086Z,99.90
2022-08-22T20:51:33.477Z,99.90
2022-08-22T20:54:09.997Z,99.90
2022-08-22T20:56:48.635Z,99.90
2022-08-22T20:59:20.669Z,99.90
2022-08-22T21:01:48.639Z,99.90
2022-08-22T21:04:19.826Z,99.90
2022-08-22T21:06:46.952Z,99.90
2022-08-22T21:09:37.326Z,99.90
2022-08-22T21:12:09.216Z,99.90
2022-08-22T21:14:44.342Z,99.90
2022-08-22T21:17:29.183Z,99.90
2022-08-22T21:20:24.849Z,99.90
2022-08-22T21:22:52.360Z,99.90
2022-08-22T21:25:19.423Z,99.90
2022-08-22T21:27:48.498Z,99.90
2022-08-22T21:30:24.460Z,99.90
2022-08-22T21:32:55.994Z,99.90
2022-08-22T21:35:32.047Z,99.90
2022-08-22T21:38:01.279Z,99.90
2022-08-22T21:40:35.142Z,99.90
2022-08-22T21:43:06.967Z,99.90
2022-08-22T21:45:39.967Z,99.90
2022-08-22T21:48:45.412Z,99.90
2022-08-22T21:51:45.750Z,99.90
2022-08-22T21:54:31.935Z,99.90
2022-08-22T21:57:20.562Z,99.90
2022-08-22T21:59:59.519Z,99.90
2022-08-22T22:02:39.697Z,99.90
2022-08-22T22:05:13.723Z,99.90
2022-08-22T22:07:43.784Z,99.90
2022-08-22T22:10:16.405Z,99.90
2022-08-22T22:12:45.304Z,99.90
2022-08-22T22:15:16.688Z,99.90
2022-08-22T22:17:43.995Z,99.90
2022-08-22T22:20:12.336Z,99.90
2022-08-22T22:22:41.215Z,99.90
2022-08-22T22:25:40.703Z,99.90
2022-08-22T22:28:25.188Z,99.90
2022-08-22T22:30:53.516Z,99.90
2022-08-22T22:33:23.693Z,99.90
2022-08-22T22:35:52.927Z,99.90
2022-08-22T22:38:23.861Z,99.90
2022-08-22T22:40:52.525Z,99.90
2022-08-22T22:43:19.975Z,99.90
2022-08-22T22:45:46.950Z,99.90
2022-08-22T22:48:24.195Z,99.90
2022-08-22T22:50:52.534Z,99.90
2022-08-22T22:53:21.425Z,99.90
2022-08-22T22:56:09.168Z,99.90
2022-08-22T22:58:36.928Z,99.90
2022-08-22T23:01:16.404Z,99.90
2022-08-22T23:03:44.893Z,99.90
2022-08-22T23:06:18.099Z,99.90
2022-08-22T23:08:45.065Z,99.90
2022-08-22T23:11:13.934Z,99.90
2022-08-22T23:13:44.416Z,99.90
2022-08-22T23:16:21.037Z,99.90
2022-08-22T23:18:48.685Z,99.90
2022-08-22T23:21:19.451Z,99.90
2022-08-22T23:23:47.358Z,99.90
2022-08-22T23:26:15.388Z,99.90
2022-08-22T23:28:43.485Z,99.90
2022-08-22T23:31:12.302Z,99.90
2022-08-22T23:33:39.562Z,99.90
2022-08-22T23:36:15.548Z,99.90
2022-08-22T23:38:43.177Z,99.90
2022-08-22T23:41:13.081Z,99.90
2022-08-22T23:43:45.619Z,99.90
2022-08-22T23:46:14.176Z,99.90
2022-08-22T23:48:42.194Z,99.90
2022-08-22T23:51:14.653Z,99.90
2022-08-22T23:53:43.796Z,99.90
2022-08-22T23:56:11.009Z,99.90
2022-08-22T23:58:48.938Z,99.90
